sensor_id;sensor_type;location;lat;lon;timestamp;P1;durP1;ratioP1;P2;durP2;ratioP2
16294;SDS011;8255;49.560;8.244;2023-03-12T00:00:23;4.53;;;3.90;;
16294;SDS011;8255;49.560;8.244;2023-03-12T00:02:49;5.03;;;3.60;;
16294;SDS011;8255;49.560;8.244;2023-03-12T00:05:15;4.60;;;3.97;;
16294;SDS011;8255;49.560;8.244;2023-03-12T00:07:43;5.13;;;3.80;;
16294;SDS011;8255;49.560;8.244;2023-03-12T00:10:10;5.57;;;3.70;;
16294;SDS011;8255;49.560;8.244;2023-03-12T00:12:36;5.17;;;3.93;;
16294;SDS011;8255;49.560;8.244;2023-03-12T00:15:03;6.60;;;3.83;;
16294;SDS011;8255;49.560;8.244;2023-03-12T00:17:29;7.23;;;3.60;;
16294;SDS011;8255;49.560;8.244;2023-03-12T00:19:55;5.13;;;4.10;;
16294;SDS011;8255;49.560;8.244;2023-03-12T00:22:22;7.60;;;4.40;;
16294;SDS011;8255;49.560;8.244;2023-03-12T00:24:51;4.20;;;3.80;;
16294;SDS011;8255;49.560;8.244;2023-03-12T00:27:17;5.17;;;3.90;;
16294;SDS011;8255;49.560;8.244;2023-03-12T00:29:44;3.60;;;3.20;;
16294;SDS011;8255;49.560;8.244;2023-03-12T00:32:10;5.57;;;3.80;;
16294;SDS011;8255;49.560;8.244;2023-03-12T00:34:36;10.87;;;3.87;;
16294;SDS011;8255;49.560;8.244;2023-03-12T00:37:03;4.80;;;3.30;;
16294;SDS011;8255;49.560;8.244;2023-03-12T00:39:29;4.97;;;3.43;;
16294;SDS011;8255;49.560;8.244;2023-03-12T00:41:57;10.07;;;3.40;;
16294;SDS011;8255;49.560;8.244;2023-03-12T00:44:23;4.77;;;3.03;;
16294;SDS011;8255;49.560;8.244;2023-03-12T00:46:49;5.30;;;3.10;;
16294;SDS011;8255;49.560;8.244;2023-03-12T00:49:15;4.60;;;4.03;;
16294;SDS011;8255;49.560;8.244;2023-03-12T00:51:42;4.30;;;3.90;;
16294;SDS011;8255;49.560;8.244;2023-03-12T00:54:08;6.87;;;4.43;;
16294;SDS011;8255;49.560;8.244;2023-03-12T00:56:35;8.17;;;4.70;;
16294;SDS011;8255;49.560;8.244;2023-03-12T00:59:02;9.60;;;5.17;;
16294;SDS011;8255;49.560;8.244;2023-03-12T01:01:29;9.97;;;5.00;;
16294;SDS011;8255;49.560;8.244;2023-03-12T01:03:55;7.47;;;5.20;;
16294;SDS011;8255;49.560;8.244;2023-03-12T01:06:22;8.80;;;5.77;;
16294;SDS011;8255;49.560;8.244;2023-03-12T01:08:49;7.20;;;5.07;;
16294;SDS011;8255;49.560;8.244;2023-03-12T01:11:16;6.93;;;4.53;;
16294;SDS011;8255;49.560;8.244;2023-03-12T01:13:42;5.57;;;3.67;;
16294;SDS011;8255;49.560;8.244;2023-03-12T01:16:10;8.70;;;4.43;;
16294;SDS011;8255;49.560;8.244;2023-03-12T01:18:36;60.53;;;37.17;;
16294;SDS011;8255;49.560;8.244;2023-03-12T01:21:03;20.83;;;13.07;;
16294;SDS011;8255;49.560;8.244;2023-03-12T01:23:29;10.00;;;6.93;;
16294;SDS011;8255;49.560;8.244;2023-03-12T01:25:57;7.60;;;5.13;;
16294;SDS011;8255;49.560;8.244;2023-03-12T01:28:24;6.10;;;4.07;;
16294;SDS011;8255;49.560;8.244;2023-03-12T01:30:50;6.03;;;3.73;;
16294;SDS011;8255;49.560;8.244;2023-03-12T01:33:18;6.13;;;3.93;;
16294;SDS011;8255;49.560;8.244;2023-03-12T01:35:46;4.73;;;4.00;;
16294;SDS011;8255;49.560;8.244;2023-03-12T01:38:14;5.80;;;3.77;;
16294;SDS011;8255;49.560;8.244;2023-03-12T01:40:41;7.33;;;4.13;;
16294;SDS011;8255;49.560;8.244;2023-03-12T01:43:26;8.00;;;4.07;;
16294;SDS011;8255;49.560;8.244;2023-03-12T01:46:15;18.57;;;10.47;;
16294;SDS011;8255;49.560;8.244;2023-03-12T01:48:49;21.27;;;10.47;;
16294;SDS011;8255;49.560;8.244;2023-03-12T01:51:16;17.50;;;9.37;;
16294;SDS011;8255;49.560;8.244;2023-03-12T01:53:46;16.63;;;9.70;;
16294;SDS011;8255;49.560;8.244;2023-03-12T01:56:13;16.90;;;10.27;;
16294;SDS011;8255;49.560;8.244;2023-03-12T01:58:41;14.13;;;8.87;;
16294;SDS011;8255;49.560;8.244;2023-03-12T02:01:09;15.40;;;7.83;;
16294;SDS011;8255;49.560;8.244;2023-03-12T02:03:36;11.50;;;7.20;;
16294;SDS011;8255;49.560;8.244;2023-03-12T02:06:05;14.03;;;7.30;;
16294;SDS011;8255;49.560;8.244;2023-03-12T02:08:34;11.30;;;7.57;;
16294;SDS011;8255;49.560;8.244;2023-03-12T02:11:01;12.00;;;6.97;;
16294;SDS011;8255;49.560;8.244;2023-03-12T02:13:28;8.07;;;5.60;;
16294;SDS011;8255;49.560;8.244;2023-03-12T02:15:55;7.40;;;4.80;;
16294;SDS011;8255;49.560;8.244;2023-03-12T02:18:21;7.70;;;4.83;;
16294;SDS011;8255;49.560;8.244;2023-03-12T02:20:48;6.33;;;4.83;;
16294;SDS011;8255;49.560;8.244;2023-03-12T02:23:20;7.10;;;4.47;;
16294;SDS011;8255;49.560;8.244;2023-03-12T02:25:52;5.87;;;4.20;;
16294;SDS011;8255;49.560;8.244;2023-03-12T02:28:20;5.13;;;4.37;;
16294;SDS011;8255;49.560;8.244;2023-03-12T02:30:49;4.83;;;4.33;;
16294;SDS011;8255;49.560;8.244;2023-03-12T02:33:16;12.70;;;7.60;;
16294;SDS011;8255;49.560;8.244;2023-03-12T02:35:44;4.80;;;4.30;;
16294;SDS011;8255;49.560;8.244;2023-03-12T02:38:28;8.57;;;4.50;;
16294;SDS011;8255;49.560;8.244;2023-03-12T02:40:58;5.47;;;4.30;;
16294;SDS011;8255;49.560;8.244;2023-03-12T02:43:26;7.33;;;4.50;;
16294;SDS011;8255;49.560;8.244;2023-03-12T02:45:53;4.97;;;4.47;;
16294;SDS011;8255;49.560;8.244;2023-03-12T02:48:21;6.50;;;4.43;;
16294;SDS011;8255;49.560;8.244;2023-03-12T02:50:47;10.23;;;4.47;;
16294;SDS011;8255;49.560;8.244;2023-03-12T02:53:14;5.27;;;4.60;;
16294;SDS011;8255;49.560;8.244;2023-03-12T02:55:40;8.30;;;4.90;;
16294;SDS011;8255;49.560;8.244;2023-03-12T02:58:08;8.13;;;4.50;;
16294;SDS011;8255;49.560;8.244;2023-03-12T03:00:34;13.60;;;10.20;;
16294;SDS011;8255;49.560;8.244;2023-03-12T03:03:02;12.07;;;8.60;;
16294;SDS011;8255;49.560;8.244;2023-03-12T03:05:28;46.87;;;14.47;;
16294;SDS011;8255;49.560;8.244;2023-03-12T03:07:55;38.73;;;9.03;;
16294;SDS011;8255;49.560;8.244;2023-03-12T03:10:21;7.67;;;4.83;;
16294;SDS011;8255;49.560;8.244;2023-03-12T03:12:48;6.43;;;4.67;;
16294;SDS011;8255;49.560;8.244;2023-03-12T03:15:17;5.27;;;4.33;;
16294;SDS011;8255;49.560;8.244;2023-03-12T03:17:43;6.43;;;4.60;;
16294;SDS011;8255;49.560;8.244;2023-03-12T03:20:10;6.00;;;4.50;;
16294;SDS011;8255;49.560;8.244;2023-03-12T03:22:36;6.80;;;4.97;;
16294;SDS011;8255;49.560;8.244;2023-03-12T03:25:03;6.47;;;4.97;;
16294;SDS011;8255;49.560;8.244;2023-03-12T03:27:30;6.37;;;4.53;;
16294;SDS011;8255;49.560;8.244;2023-03-12T03:29:57;5.47;;;4.57;;
16294;SDS011;8255;49.560;8.244;2023-03-12T03:32:25;6.93;;;4.40;;
16294;SDS011;8255;49.560;8.244;2023-03-12T03:34:51;7.37;;;4.53;;
16294;SDS011;8255;49.560;8.244;2023-03-12T03:37:18;6.13;;;4.57;;
16294;SDS011;8255;49.560;8.244;2023-03-12T03:39:44;4.80;;;4.30;;
16294;SDS011;8255;49.560;8.244;2023-03-12T03:42:11;6.57;;;4.33;;
16294;SDS011;8255;49.560;8.244;2023-03-12T03:44:37;6.77;;;4.40;;
16294;SDS011;8255;49.560;8.244;2023-03-12T03:47:04;8.27;;;4.57;;
16294;SDS011;8255;49.560;8.244;2023-03-12T03:49:31;5.27;;;4.57;;
16294;SDS011;8255;49.560;8.244;2023-03-12T03:51:58;5.80;;;4.67;;
16294;SDS011;8255;49.560;8.244;2023-03-12T03:54:30;8.83;;;4.33;;
16294;SDS011;8255;49.560;8.244;2023-03-12T03:56:58;7.47;;;5.70;;
16294;SDS011;8255;49.560;8.244;2023-03-12T03:59:25;7.60;;;6.30;;
16294;SDS011;8255;49.560;8.244;2023-03-12T04:01:51;18.33;;;11.70;;
16294;SDS011;8255;49.560;8.244;2023-03-12T04:04:18;16.50;;;10.73;;
16294;SDS011;8255;49.560;8.244;2023-03-12T04:06:46;17.23;;;8.60;;
16294;SDS011;8255;49.560;8.244;2023-03-12T04:09:13;13.17;;;5.10;;
16294;SDS011;8255;49.560;8.244;2023-03-12T04:11:39;6.77;;;5.47;;
16294;SDS011;8255;49.560;8.244;2023-03-12T04:14:07;5.60;;;5.00;;
16294;SDS011;8255;49.560;8.244;2023-03-12T04:16:36;7.27;;;4.53;;
16294;SDS011;8255;49.560;8.244;2023-03-12T04:19:03;6.77;;;4.77;;
16294;SDS011;8255;49.560;8.244;2023-03-12T04:21:29;7.63;;;5.07;;
16294;SDS011;8255;49.560;8.244;2023-03-12T04:23:57;9.87;;;5.33;;
16294;SDS011;8255;49.560;8.244;2023-03-12T04:26:27;7.90;;;5.20;;
16294;SDS011;8255;49.560;8.244;2023-03-12T04:28:55;6.07;;;5.37;;
16294;SDS011;8255;49.560;8.244;2023-03-12T04:31:21;7.63;;;5.07;;
16294;SDS011;8255;49.560;8.244;2023-03-12T04:33:49;8.83;;;5.87;;
16294;SDS011;8255;49.560;8.244;2023-03-12T04:36:17;7.07;;;5.47;;
16294;SDS011;8255;49.560;8.244;2023-03-12T04:38:46;8.67;;;5.53;;
16294;SDS011;8255;49.560;8.244;2023-03-12T04:41:16;6.17;;;5.23;;
16294;SDS011;8255;49.560;8.244;2023-03-12T04:43:47;6.47;;;5.00;;
16294;SDS011;8255;49.560;8.244;2023-03-12T04:46:14;6.20;;;4.20;;
16294;SDS011;8255;49.560;8.244;2023-03-12T04:48:42;4.87;;;4.40;;
16294;SDS011;8255;49.560;8.244;2023-03-12T04:51:08;6.03;;;4.40;;
16294;SDS011;8255;49.560;8.244;2023-03-12T04:53:34;6.40;;;5.00;;
16294;SDS011;8255;49.560;8.244;2023-03-12T04:56:01;6.63;;;4.17;;
16294;SDS011;8255;49.560;8.244;2023-03-12T04:58:30;3.50;;;3.20;;
16294;SDS011;8255;49.560;8.244;2023-03-12T05:00:56;6.03;;;4.40;;
16294;SDS011;8255;49.560;8.244;2023-03-12T05:03:23;5.17;;;4.43;;
16294;SDS011;8255;49.560;8.244;2023-03-12T05:05:49;6.33;;;5.07;;
16294;SDS011;8255;49.560;8.244;2023-03-12T05:08:15;5.70;;;5.10;;
16294;SDS011;8255;49.560;8.244;2023-03-12T05:10:42;6.20;;;5.63;;
16294;SDS011;8255;49.560;8.244;2023-03-12T05:13:12;6.17;;;5.47;;
16294;SDS011;8255;49.560;8.244;2023-03-12T05:15:40;6.47;;;5.77;;
16294;SDS011;8255;49.560;8.244;2023-03-12T05:18:06;8.83;;;5.57;;
16294;SDS011;8255;49.560;8.244;2023-03-12T05:20:33;7.27;;;5.90;;
16294;SDS011;8255;49.560;8.244;2023-03-12T05:22:59;6.47;;;5.87;;
16294;SDS011;8255;49.560;8.244;2023-03-12T05:25:26;7.47;;;6.27;;
16294;SDS011;8255;49.560;8.244;2023-03-12T05:27:52;7.00;;;6.40;;
16294;SDS011;8255;49.560;8.244;2023-03-12T05:30:20;9.17;;;7.13;;
16294;SDS011;8255;49.560;8.244;2023-03-12T05:32:47;12.30;;;7.67;;
16294;SDS011;8255;49.560;8.244;2023-03-12T05:35:14;11.93;;;7.60;;
16294;SDS011;8255;49.560;8.244;2023-03-12T05:37:42;9.27;;;6.90;;
16294;SDS011;8255;49.560;8.244;2023-03-12T05:40:10;7.63;;;6.93;;
16294;SDS011;8255;49.560;8.244;2023-03-12T05:42:37;10.27;;;7.60;;
16294;SDS011;8255;49.560;8.244;2023-03-12T05:45:06;8.27;;;7.17;;
16294;SDS011;8255;49.560;8.244;2023-03-12T05:47:34;7.80;;;7.00;;
16294;SDS011;8255;49.560;8.244;2023-03-12T05:50:03;11.13;;;7.83;;
16294;SDS011;8255;49.560;8.244;2023-03-12T05:52:29;8.27;;;7.27;;
16294;SDS011;8255;49.560;8.244;2023-03-12T05:54:56;8.60;;;7.70;;
16294;SDS011;8255;49.560;8.244;2023-03-12T05:57:22;8.80;;;7.30;;
16294;SDS011;8255;49.560;8.244;2023-03-12T05:59:48;12.53;;;7.73;;
16294;SDS011;8255;49.560;8.244;2023-03-12T06:02:15;8.83;;;7.73;;
16294;SDS011;8255;49.560;8.244;2023-03-12T06:04:42;9.17;;;8.13;;
16294;SDS011;8255;49.560;8.244;2023-03-12T06:07:10;10.27;;;8.20;;
16294;SDS011;8255;49.560;8.244;2023-03-12T06:09:36;9.13;;;7.87;;
16294;SDS011;8255;49.560;8.244;2023-03-12T06:12:03;9.93;;;8.63;;
16294;SDS011;8255;49.560;8.244;2023-03-12T06:14:30;9.33;;;8.07;;
16294;SDS011;8255;49.560;8.244;2023-03-12T06:16:58;8.47;;;7.50;;
16294;SDS011;8255;49.560;8.244;2023-03-12T06:19:25;11.10;;;8.20;;
16294;SDS011;8255;49.560;8.244;2023-03-12T06:21:51;9.90;;;8.23;;
16294;SDS011;8255;49.560;8.244;2023-03-12T06:24:19;8.83;;;7.93;;
16294;SDS011;8255;49.560;8.244;2023-03-12T06:26:48;9.83;;;7.47;;
16294;SDS011;8255;49.560;8.244;2023-03-12T06:29:14;13.30;;;7.97;;
16294;SDS011;8255;49.560;8.244;2023-03-12T06:31:41;10.60;;;8.85;;
16294;SDS011;8255;49.560;8.244;2023-03-12T06:34:08;11.23;;;7.63;;
16294;SDS011;8255;49.560;8.244;2023-03-12T06:36:34;7.80;;;7.00;;
16294;SDS011;8255;49.560;8.244;2023-03-12T06:39:01;8.57;;;6.43;;
16294;SDS011;8255;49.560;8.244;2023-03-12T06:41:31;6.63;;;6.00;;
16294;SDS011;8255;49.560;8.244;2023-03-12T06:43:57;8.27;;;6.90;;
16294;SDS011;8255;49.560;8.244;2023-03-12T06:46:25;7.77;;;5.83;;
16294;SDS011;8255;49.560;8.244;2023-03-12T06:48:52;8.27;;;6.60;;
16294;SDS011;8255;49.560;8.244;2023-03-12T06:51:19;8.33;;;7.20;;
16294;SDS011;8255;49.560;8.244;2023-03-12T06:53:45;7.40;;;6.47;;
16294;SDS011;8255;49.560;8.244;2023-03-12T06:56:12;6.70;;;6.00;;
16294;SDS011;8255;49.560;8.244;2023-03-12T06:58:40;10.43;;;6.23;;
16294;SDS011;8255;49.560;8.244;2023-03-12T07:01:06;10.10;;;6.50;;
16294;SDS011;8255;49.560;8.244;2023-03-12T07:03:33;10.33;;;6.27;;
16294;SDS011;8255;49.560;8.244;2023-03-12T07:05:59;8.47;;;6.00;;
16294;SDS011;8255;49.560;8.244;2023-03-12T07:08:26;7.40;;;6.70;;
16294;SDS011;8255;49.560;8.244;2023-03-12T07:10:55;7.70;;;6.93;;
16294;SDS011;8255;49.560;8.244;2023-03-12T07:13:21;11.67;;;8.77;;
16294;SDS011;8255;49.560;8.244;2023-03-12T07:15:49;10.63;;;7.20;;
16294;SDS011;8255;49.560;8.244;2023-03-12T07:18:15;7.70;;;6.63;;
16294;SDS011;8255;49.560;8.244;2023-03-12T07:20:42;7.17;;;6.43;;
16294;SDS011;8255;49.560;8.244;2023-03-12T07:23:09;8.90;;;5.20;;
16294;SDS011;8255;49.560;8.244;2023-03-12T07:25:36;8.17;;;6.93;;
16294;SDS011;8255;49.560;8.244;2023-03-12T07:28:02;7.97;;;6.63;;
16294;SDS011;8255;49.560;8.244;2023-03-12T07:30:29;8.30;;;6.50;;
16294;SDS011;8255;49.560;8.244;2023-03-12T07:32:58;8.87;;;6.30;;
16294;SDS011;8255;49.560;8.244;2023-03-12T07:35:25;8.60;;;6.47;;
16294;SDS011;8255;49.560;8.244;2023-03-12T07:37:51;11.10;;;6.67;;
16294;SDS011;8255;49.560;8.244;2023-03-12T07:40:17;7.67;;;6.70;;
16294;SDS011;8255;49.560;8.244;2023-03-12T07:42:44;11.13;;;6.90;;
16294;SDS011;8255;49.560;8.244;2023-03-12T07:45:11;8.37;;;6.53;;
16294;SDS011;8255;49.560;8.244;2023-03-12T07:47:37;15.30;;;8.90;;
16294;SDS011;8255;49.560;8.244;2023-03-12T07:50:05;11.40;;;7.83;;
16294;SDS011;8255;49.560;8.244;2023-03-12T07:52:32;9.40;;;7.27;;
16294;SDS011;8255;49.560;8.244;2023-03-12T07:54:58;10.33;;;7.00;;
16294;SDS011;8255;49.560;8.244;2023-03-12T07:57:24;8.13;;;7.13;;
16294;SDS011;8255;49.560;8.244;2023-03-12T07:59:51;9.33;;;6.97;;
16294;SDS011;8255;49.560;8.244;2023-03-12T08:02:17;8.43;;;6.07;;
16294;SDS011;8255;49.560;8.244;2023-03-12T08:04:44;12.80;;;7.37;;
16294;SDS011;8255;49.560;8.244;2023-03-12T08:07:12;7.33;;;6.20;;
16294;SDS011;8255;49.560;8.244;2023-03-12T08:09:38;8.03;;;6.07;;
16294;SDS011;8255;49.560;8.244;2023-03-12T08:12:05;9.40;;;6.80;;
16294;SDS011;8255;49.560;8.244;2023-03-12T08:14:32;7.50;;;6.70;;
16294;SDS011;8255;49.560;8.244;2023-03-12T08:16:58;9.67;;;7.67;;
16294;SDS011;8255;49.560;8.244;2023-03-12T08:19:24;11.60;;;8.65;;
16294;SDS011;8255;49.560;8.244;2023-03-12T08:21:51;11.17;;;8.13;;
16294;SDS011;8255;49.560;8.244;2023-03-12T08:24:19;8.73;;;7.83;;
16294;SDS011;8255;49.560;8.244;2023-03-12T08:26:46;11.63;;;8.60;;
16294;SDS011;8255;49.560;8.244;2023-03-12T08:29:12;8.10;;;6.97;;
16294;SDS011;8255;49.560;8.244;2023-03-12T08:31:39;10.23;;;7.53;;
16294;SDS011;8255;49.560;8.244;2023-03-12T08:34:05;8.87;;;7.97;;
16294;SDS011;8255;49.560;8.244;2023-03-12T08:36:31;9.00;;;8.10;;
16294;SDS011;8255;49.560;8.244;2023-03-12T08:38:57;12.97;;;8.70;;
16294;SDS011;8255;49.560;8.244;2023-03-12T08:41:25;11.60;;;7.63;;
16294;SDS011;8255;49.560;8.244;2023-03-12T08:43:52;8.90;;;7.70;;
16294;SDS011;8255;49.560;8.244;2023-03-12T08:46:18;10.03;;;9.00;;
16294;SDS011;8255;49.560;8.244;2023-03-12T08:48:44;12.83;;;8.37;;
16294;SDS011;8255;49.560;8.244;2023-03-12T08:51:11;10.03;;;8.23;;
16294;SDS011;8255;49.560;8.244;2023-03-12T08:53:37;11.90;;;8.90;;
16294;SDS011;8255;49.560;8.244;2023-03-12T08:56:04;11.70;;;9.73;;
16294;SDS011;8255;49.560;8.244;2023-03-12T08:58:31;10.53;;;9.37;;
16294;SDS011;8255;49.560;8.244;2023-03-12T09:00:58;10.23;;;8.70;;
16294;SDS011;8255;49.560;8.244;2023-03-12T09:03:24;17.57;;;8.07;;
16294;SDS011;8255;49.560;8.244;2023-03-12T09:06:00;14.50;;;10.53;;
16294;SDS011;8255;49.560;8.244;2023-03-12T09:08:27;13.97;;;10.67;;
16294;SDS011;8255;49.560;8.244;2023-03-12T09:10:53;12.37;;;9.93;;
16294;SDS011;8255;49.560;8.244;2023-03-12T09:13:19;15.37;;;11.17;;
16294;SDS011;8255;49.560;8.244;2023-03-12T09:15:47;13.63;;;10.97;;
16294;SDS011;8255;49.560;8.244;2023-03-12T09:18:13;14.40;;;11.33;;
16294;SDS011;8255;49.560;8.244;2023-03-12T09:20:40;14.40;;;11.97;;
16294;SDS011;8255;49.560;8.244;2023-03-12T09:23:07;16.40;;;12.70;;
16294;SDS011;8255;49.560;8.244;2023-03-12T09:25:33;16.50;;;11.40;;
16294;SDS011;8255;49.560;8.244;2023-03-12T09:27:59;14.13;;;11.90;;
16294;SDS011;8255;49.560;8.244;2023-03-12T09:30:26;16.30;;;13.27;;
16294;SDS011;8255;49.560;8.244;2023-03-12T09:32:55;15.10;;;13.23;;
16294;SDS011;8255;49.560;8.244;2023-03-12T09:35:22;16.70;;;13.13;;
16294;SDS011;8255;49.560;8.244;2023-03-12T09:37:48;16.40;;;13.23;;
16294;SDS011;8255;49.560;8.244;2023-03-12T09:40:16;16.10;;;13.07;;
16294;SDS011;8255;49.560;8.244;2023-03-12T09:42:43;14.37;;;11.57;;
16294;SDS011;8255;49.560;8.244;2023-03-12T09:45:13;17.07;;;12.90;;
16294;SDS011;8255;49.560;8.244;2023-03-12T09:47:42;13.30;;;10.47;;
16294;SDS011;8255;49.560;8.244;2023-03-12T09:50:16;17.97;;;13.37;;
16294;SDS011;8255;49.560;8.244;2023-03-12T09:52:45;17.43;;;12.97;;
16294;SDS011;8255;49.560;8.244;2023-03-12T09:55:14;17.83;;;13.47;;
16294;SDS011;8255;49.560;8.244;2023-03-12T09:57:41;18.57;;;14.23;;
16294;SDS011;8255;49.560;8.244;2023-03-12T10:00:10;19.17;;;14.00;;
16294;SDS011;8255;49.560;8.244;2023-03-12T10:05:22;18.37;;;12.63;;
16294;SDS011;8255;49.560;8.244;2023-03-12T10:07:49;15.73;;;12.97;;
16294;SDS011;8255;49.560;8.244;2023-03-12T10:10:20;13.87;;;12.47;;
16294;SDS011;8255;49.560;8.244;2023-03-12T10:12:54;16.90;;;12.50;;
16294;SDS011;8255;49.560;8.244;2023-03-12T10:15:29;17.57;;;11.83;;
16294;SDS011;8255;49.560;8.244;2023-03-12T10:18:00;15.57;;;12.27;;
16294;SDS011;8255;49.560;8.244;2023-03-12T10:20:51;15.03;;;12.60;;
16294;SDS011;8255;49.560;8.244;2023-03-12T10:23:20;13.03;;;11.70;;
16294;SDS011;8255;49.560;8.244;2023-03-12T10:25:49;12.73;;;11.43;;
16294;SDS011;8255;49.560;8.244;2023-03-12T10:28:19;12.10;;;10.90;;
16294;SDS011;8255;49.560;8.244;2023-03-12T10:30:47;15.73;;;11.93;;
16294;SDS011;8255;49.560;8.244;2023-03-12T10:33:16;13.73;;;12.33;;
16294;SDS011;8255;49.560;8.244;2023-03-12T10:35:43;13.47;;;12.07;;
16294;SDS011;8255;49.560;8.244;2023-03-12T10:38:12;13.90;;;11.87;;
16294;SDS011;8255;49.560;8.244;2023-03-12T10:40:39;13.67;;;12.23;;
16294;SDS011;8255;49.560;8.244;2023-03-12T10:43:06;12.33;;;11.03;;
16294;SDS011;8255;49.560;8.244;2023-03-12T10:45:35;12.97;;;11.50;;
16294;SDS011;8255;49.560;8.244;2023-03-12T10:48:04;11.63;;;10.53;;
16294;SDS011;8255;49.560;8.244;2023-03-12T10:50:31;12.33;;;11.03;;
16294;SDS011;8255;49.560;8.244;2023-03-12T10:53:13;12.83;;;11.10;;
16294;SDS011;8255;49.560;8.244;2023-03-12T10:55:39;12.10;;;10.90;;
16294;SDS011;8255;49.560;8.244;2023-03-12T10:58:06;11.70;;;10.60;;
16294;SDS011;8255;49.560;8.244;2023-03-12T11:00:32;12.40;;;11.30;;
16294;SDS011;8255;49.560;8.244;2023-03-12T11:02:59;12.30;;;11.10;;
16294;SDS011;8255;49.560;8.244;2023-03-12T11:05:28;11.63;;;10.33;;
16294;SDS011;8255;49.560;8.244;2023-03-12T11:07:55;13.73;;;10.87;;
16294;SDS011;8255;49.560;8.244;2023-03-12T11:10:25;12.57;;;10.80;;
16294;SDS011;8255;49.560;8.244;2023-03-12T11:13:03;11.23;;;10.10;;
16294;SDS011;8255;49.560;8.244;2023-03-12T11:15:36;11.13;;;9.73;;
16294;SDS011;8255;49.560;8.244;2023-03-12T11:18:18;12.00;;;9.77;;
16294;SDS011;8255;49.560;8.244;2023-03-12T11:20:44;14.43;;;11.00;;
16294;SDS011;8255;49.560;8.244;2023-03-12T11:23:12;9.63;;;8.73;;
16294;SDS011;8255;49.560;8.244;2023-03-12T11:25:40;12.87;;;9.50;;
16294;SDS011;8255;49.560;8.244;2023-03-12T11:28:09;11.27;;;9.93;;
16294;SDS011;8255;49.560;8.244;2023-03-12T11:30:38;11.13;;;10.00;;
16294;SDS011;8255;49.560;8.244;2023-03-12T11:33:06;10.47;;;9.47;;
16294;SDS011;8255;49.560;8.244;2023-03-12T11:35:38;9.13;;;8.23;;
16294;SDS011;8255;49.560;8.244;2023-03-12T11:38:09;9.38;;;8.43;;
16294;SDS011;8255;49.560;8.244;2023-03-12T11:40:47;8.45;;;7.65;;
16294;SDS011;8255;49.560;8.244;2023-03-12T11:43:18;8.18;;;7.47;;
16294;SDS011;8255;49.560;8.244;2023-03-12T11:45:53;7.75;;;7.15;;
16294;SDS011;8255;49.560;8.244;2023-03-12T11:48:24;7.93;;;7.07;;
16294;SDS011;8255;49.560;8.244;2023-03-12T11:50:56;7.82;;;6.80;;
16294;SDS011;8255;49.560;8.244;2023-03-12T11:56:16;8.25;;;6.88;;
16294;SDS011;8255;49.560;8.244;2023-03-12T11:58:54;8.73;;;6.85;;
16294;SDS011;8255;49.560;8.244;2023-03-12T12:01:24;7.10;;;6.32;;
16294;SDS011;8255;49.560;8.244;2023-03-12T12:03:58;8.43;;;6.88;;
16294;SDS011;8255;49.560;8.244;2023-03-12T12:06:27;8.48;;;6.60;;
16294;SDS011;8255;49.560;8.244;2023-03-12T12:09:03;8.23;;;6.88;;
16294;SDS011;8255;49.560;8.244;2023-03-12T12:11:35;6.90;;;6.30;;
16294;SDS011;8255;49.560;8.244;2023-03-12T12:14:09;6.78;;;5.95;;
16294;SDS011;8255;49.560;8.244;2023-03-12T12:16:42;9.02;;;6.25;;
16294;SDS011;8255;49.560;8.244;2023-03-12T12:19:16;8.50;;;5.80;;
16294;SDS011;8255;49.560;8.244;2023-03-12T12:21:51;6.22;;;4.22;;
16294;SDS011;8255;49.560;8.244;2023-03-12T12:24:29;7.38;;;4.80;;
16294;SDS011;8255;49.560;8.244;2023-03-12T12:27:00;7.60;;;3.80;;
16294;SDS011;8255;49.560;8.244;2023-03-12T12:29:31;7.50;;;4.72;;
16294;SDS011;8255;49.560;8.244;2023-03-12T12:32:00;9.20;;;4.75;;
16294;SDS011;8255;49.560;8.244;2023-03-12T12:37:22;8.75;;;5.45;;
16294;SDS011;8255;49.560;8.244;2023-03-12T12:39:51;11.93;;;5.72;;
16294;SDS011;8255;49.560;8.244;2023-03-12T12:42:22;8.50;;;4.07;;
16294;SDS011;8255;49.560;8.244;2023-03-12T12:44:50;8.88;;;4.32;;
16294;SDS011;8255;49.560;8.244;2023-03-12T12:47:18;12.48;;;7.03;;
16294;SDS011;8255;49.560;8.244;2023-03-12T12:49:47;11.68;;;6.53;;
16294;SDS011;8255;49.560;8.244;2023-03-12T12:52:16;9.25;;;4.25;;
16294;SDS011;8255;49.560;8.244;2023-03-12T12:54:46;9.82;;;4.00;;
16294;SDS011;8255;49.560;8.244;2023-03-12T12:57:17;8.52;;;3.97;;
16294;SDS011;8255;49.560;8.244;2023-03-12T12:59:48;10.75;;;3.92;;
16294;SDS011;8255;49.560;8.244;2023-03-12T13:02:18;9.65;;;3.83;;
16294;SDS011;8255;49.560;8.244;2023-03-12T13:04:45;8.15;;;3.17;;
16294;SDS011;8255;49.560;8.244;2023-03-12T13:07:30;9.10;;;3.90;;
16294;SDS011;8255;49.560;8.244;2023-03-12T13:09:58;7.00;;;4.10;;
16294;SDS011;8255;49.560;8.244;2023-03-12T13:12:26;7.05;;;3.63;;
16294;SDS011;8255;49.560;8.244;2023-03-12T13:14:55;10.73;;;4.40;;
16294;SDS011;8255;49.560;8.244;2023-03-12T13:17:23;11.00;;;4.00;;
16294;SDS011;8255;49.560;8.244;2023-03-12T13:19:52;10.77;;;4.90;;
16294;SDS011;8255;49.560;8.244;2023-03-12T13:22:23;14.30;;;6.63;;
16294;SDS011;8255;49.560;8.244;2023-03-12T13:24:53;10.45;;;4.30;;
16294;SDS011;8255;49.560;8.244;2023-03-12T13:27:23;11.05;;;5.50;;
16294;SDS011;8255;49.560;8.244;2023-03-12T13:29:50;7.63;;;3.90;;
16294;SDS011;8255;49.560;8.244;2023-03-12T13:33:02;11.13;;;3.15;;
16294;SDS011;8255;49.560;8.244;2023-03-12T13:35:31;7.47;;;3.08;;
16294;SDS011;8255;49.560;8.244;2023-03-12T13:37:59;7.88;;;3.22;;
16294;SDS011;8255;49.560;8.244;2023-03-12T13:40:32;8.93;;;3.22;;
16294;SDS011;8255;49.560;8.244;2023-03-12T13:43:00;7.68;;;2.78;;
16294;SDS011;8255;49.560;8.244;2023-03-12T13:45:27;9.07;;;3.63;;
16294;SDS011;8255;49.560;8.244;2023-03-12T13:47:57;8.48;;;3.40;;
16294;SDS011;8255;49.560;8.244;2023-03-12T13:50:24;9.52;;;3.53;;
16294;SDS011;8255;49.560;8.244;2023-03-12T13:52:57;7.63;;;3.10;;
16294;SDS011;8255;49.560;8.244;2023-03-12T13:55:26;11.05;;;3.75;;
16294;SDS011;8255;49.560;8.244;2023-03-12T13:57:53;14.18;;;4.28;;
16294;SDS011;8255;49.560;8.244;2023-03-12T14:00:24;8.40;;;3.33;;
16294;SDS011;8255;49.560;8.244;2023-03-12T14:02:51;10.43;;;4.10;;
16294;SDS011;8255;49.560;8.244;2023-03-12T14:05:19;7.10;;;3.15;;
16294;SDS011;8255;49.560;8.244;2023-03-12T14:07:52;9.90;;;3.80;;
16294;SDS011;8255;49.560;8.244;2023-03-12T14:10:24;7.20;;;2.95;;
16294;SDS011;8255;49.560;8.244;2023-03-12T14:12:53;7.43;;;3.00;;
16294;SDS011;8255;49.560;8.244;2023-03-12T14:15:26;6.72;;;2.60;;
16294;SDS011;8255;49.560;8.244;2023-03-12T14:17:55;3.92;;;2.38;;
16294;SDS011;8255;49.560;8.244;2023-03-12T14:20:22;7.93;;;2.78;;
16294;SDS011;8255;49.560;8.244;2023-03-12T14:22:50;5.80;;;2.65;;
16294;SDS011;8255;49.560;8.244;2023-03-12T14:25:21;13.02;;;3.92;;
16294;SDS011;8255;49.560;8.244;2023-03-12T14:27:50;9.05;;;3.63;;
16294;SDS011;8255;49.560;8.244;2023-03-12T14:30:19;9.13;;;3.17;;
16294;SDS011;8255;49.560;8.244;2023-03-12T14:32:46;10.45;;;4.07;;
16294;SDS011;8255;49.560;8.244;2023-03-12T14:35:15;12.80;;;5.00;;
16294;SDS011;8255;49.560;8.244;2023-03-12T14:37:43;17.20;;;3.88;;
16294;SDS011;8255;49.560;8.244;2023-03-12T14:40:17;12.80;;;3.10;;
16294;SDS011;8255;49.560;8.244;2023-03-12T14:42:46;9.43;;;3.17;;
16294;SDS011;8255;49.560;8.244;2023-03-12T14:45:15;10.77;;;3.63;;
16294;SDS011;8255;49.560;8.244;2023-03-12T14:47:43;10.70;;;3.38;;
16294;SDS011;8255;49.560;8.244;2023-03-12T14:50:15;13.68;;;3.65;;
16294;SDS011;8255;49.560;8.244;2023-03-12T14:52:42;8.65;;;3.25;;
16294;SDS011;8255;49.560;8.244;2023-03-12T14:55:11;8.00;;;2.72;;
16294;SDS011;8255;49.560;8.244;2023-03-12T14:57:37;8.88;;;2.55;;
16294;SDS011;8255;49.560;8.244;2023-03-12T15:00:04;14.70;;;3.83;;
16294;SDS011;8255;49.560;8.244;2023-03-12T15:02:40;11.07;;;3.97;;
16294;SDS011;8255;49.560;8.244;2023-03-12T15:05:13;11.05;;;3.47;;
16294;SDS011;8255;49.560;8.244;2023-03-12T15:07:40;7.20;;;2.55;;